Saint John, Washington
Current Conditions -  °F | °C
As of 7:53 AM on Thursday 23 Oct 2014 (Local Time) from KPUW Reporting Station
Broken Clouds Broken Clouds  
Wind Chill: 50°   Ceiling: 6000
Heat Index: 50°   Visibility: 10mi
Dew Point: 46°   Wind: 8mph
Humidity: 86%   Direction: 110°ESE
Pressure: 29.84"   Gusts: NA
Location:  47.09°N, 117.58°W
Report Text: KPUW 231453Z AUTO 11007KT 10SM SCT050 BKN060 10/08 A2984 RMK AO2 SLP103 60002 T01000078 55002
Loading
Personal Weather Stations






























Interactive Weather Map
Tropical Storm Tracking
New forecast layout! Learn more

10-Day Weather Forecast

Advertisements
Track Severe Weather on mobile